sensor_id;sensor_type;location;lat;lon;timestamp;temperature;humidity
75819;DHT22;64453;51.944;9.796;2022-12-17T00:02:03;-0.90;51.30
75819;DHT22;64453;51.944;9.796;2022-12-17T00:04:47;-0.90;51.00
75819;DHT22;64453;51.944;9.796;2022-12-17T00:07:33;-1.00;50.60
75819;DHT22;64453;51.944;9.796;2022-12-17T00:10:18;-1.40;51.50
75819;DHT22;64453;51.944;9.796;2022-12-17T00:13:02;-1.50;51.20
75819;DHT22;64453;51.944;9.796;2022-12-17T00:15:50;-1.40;51.10
75819;DHT22;64453;51.944;9.796;2022-12-17T00:18:35;-1.30;50.60
75819;DHT22;64453;51.944;9.796;2022-12-17T00:21:19;-2.70;52.80
75819;DHT22;64453;51.944;9.796;2022-12-17T00:24:19;-3.80;55.60
75819;DHT22;64453;51.944;9.796;2022-12-17T00:27:04;-4.50;58.30
75819;DHT22;64453;51.944;9.796;2022-12-17T00:29:48;-4.60;58.40
75819;DHT22;64453;51.944;9.796;2022-12-17T00:32:33;-4.30;58.50
75819;DHT22;64453;51.944;9.796;2022-12-17T00:35:17;-3.40;56.20
75819;DHT22;64453;51.944;9.796;2022-12-17T00:38:01;-2.60;53.70
75819;DHT22;64453;51.944;9.796;2022-12-17T00:40:50;-2.20;51.90
75819;DHT22;64453;51.944;9.796;2022-12-17T00:43:35;-2.00;51.30
75819;DHT22;64453;51.944;9.796;2022-12-17T00:46:20;-2.00;50.90
75819;DHT22;64453;51.944;9.796;2022-12-17T00:49:04;-1.80;50.70
75819;DHT22;64453;51.944;9.796;2022-12-17T00:51:49;-1.50;50.40
75819;DHT22;64453;51.944;9.796;2022-12-17T00:54:33;-1.50;49.80
75819;DHT22;64453;51.944;9.796;2022-12-17T00:57:19;-2.30;50.10
75819;DHT22;64453;51.944;9.796;2022-12-17T01:00:05;-2.70;50.40
75819;DHT22;64453;51.944;9.796;2022-12-17T01:02:50;-2.80;51.20
75819;DHT22;64453;51.944;9.796;2022-12-17T01:05:34;-2.80;50.90
75819;DHT22;64453;51.944;9.796;2022-12-17T01:08:19;-3.00;50.90
75819;DHT22;64453;51.944;9.796;2022-12-17T01:11:05;-3.70;53.90
75819;DHT22;64453;51.944;9.796;2022-12-17T01:13:52;-4.20;54.20
75819;DHT22;64453;51.944;9.796;2022-12-17T01:16:37;-4.00;54.40
75819;DHT22;64453;51.944;9.796;2022-12-17T01:19:22;-3.80;53.90
75819;DHT22;64453;51.944;9.796;2022-12-17T01:22:06;-3.70;52.90
75819;DHT22;64453;51.944;9.796;2022-12-17T01:24:51;-4.30;54.10
75819;DHT22;64453;51.944;9.796;2022-12-17T01:27:35;-3.30;51.80
75819;DHT22;64453;51.944;9.796;2022-12-17T01:30:21;-2.90;50.20
75819;DHT22;64453;51.944;9.796;2022-12-17T01:33:07;-4.20;52.40
75819;DHT22;64453;51.944;9.796;2022-12-17T01:35:54;-4.50;54.10
75819;DHT22;64453;51.944;9.796;2022-12-17T01:38:38;-3.70;52.60
75819;DHT22;64453;51.944;9.796;2022-12-17T01:41:23;-3.60;51.40
75819;DHT22;64453;51.944;9.796;2022-12-17T01:44:46;-3.10;50.70
75819;DHT22;64453;51.944;9.796;2022-12-17T01:47:39;-3.00;48.90
75819;DHT22;64453;51.944;9.796;2022-12-17T01:50:29;-3.70;50.80
75819;DHT22;64453;51.944;9.796;2022-12-17T01:53:16;-4.60;53.40
75819;DHT22;64453;51.944;9.796;2022-12-17T01:56:02;-5.00;54.60
75819;DHT22;64453;51.944;9.796;2022-12-17T01:58:47;-4.80;54.80
75819;DHT22;64453;51.944;9.796;2022-12-17T02:01:32;-5.00;54.40
75819;DHT22;64453;51.944;9.796;2022-12-17T02:04:18;-4.70;53.90
75819;DHT22;64453;51.944;9.796;2022-12-17T02:07:11;-4.20;52.40
75819;DHT22;64453;51.944;9.796;2022-12-17T02:10:12;-3.90;51.00
75819;DHT22;64453;51.944;9.796;2022-12-17T02:13:08;-3.70;50.40
75819;DHT22;64453;51.944;9.796;2022-12-17T02:16:02;-3.20;49.90
75819;DHT22;64453;51.944;9.796;2022-12-17T02:18:54;-3.70;50.30
75819;DHT22;64453;51.944;9.796;2022-12-17T02:21:47;-4.10;51.10
75819;DHT22;64453;51.944;9.796;2022-12-17T02:24:41;-3.60;50.70
75819;DHT22;64453;51.944;9.796;2022-12-17T02:27:31;-3.10;49.00
75819;DHT22;64453;51.944;9.796;2022-12-17T02:30:17;-2.80;47.80
75819;DHT22;64453;51.944;9.796;2022-12-17T02:33:01;-2.80;47.10
75819;DHT22;64453;51.944;9.796;2022-12-17T02:35:52;-3.50;47.40
75819;DHT22;64453;51.944;9.796;2022-12-17T02:38:37;-3.60;48.90
75819;DHT22;64453;51.944;9.796;2022-12-17T02:41:25;-3.70;48.70
75819;DHT22;64453;51.944;9.796;2022-12-17T02:44:19;-3.90;49.30
75819;DHT22;64453;51.944;9.796;2022-12-17T02:47:07;-3.40;48.70
75819;DHT22;64453;51.944;9.796;2022-12-17T02:50:01;-3.90;48.40
75819;DHT22;64453;51.944;9.796;2022-12-17T02:52:47;-4.40;50.50
75819;DHT22;64453;51.944;9.796;2022-12-17T02:55:32;-3.70;48.70
75819;DHT22;64453;51.944;9.796;2022-12-17T02:58:17;-3.70;48.90
75819;DHT22;64453;51.944;9.796;2022-12-17T03:01:03;-3.30;48.10
75819;DHT22;64453;51.944;9.796;2022-12-17T03:03:48;-3.70;48.30
75819;DHT22;64453;51.944;9.796;2022-12-17T03:06:33;-4.90;51.20
75819;DHT22;64453;51.944;9.796;2022-12-17T03:09:17;-4.80;52.10
75819;DHT22;64453;51.944;9.796;2022-12-17T03:12:02;-4.90;52.60
75819;DHT22;64453;51.944;9.796;2022-12-17T03:14:47;-4.30;50.10
75819;DHT22;64453;51.944;9.796;2022-12-17T03:17:33;-4.00;49.30
75819;DHT22;64453;51.944;9.796;2022-12-17T03:20:17;-4.20;49.10
75819;DHT22;64453;51.944;9.796;2022-12-17T03:23:02;-3.70;48.70
75819;DHT22;64453;51.944;9.796;2022-12-17T03:25:47;-3.40;47.60
75819;DHT22;64453;51.944;9.796;2022-12-17T03:28:32;-3.20;47.10
75819;DHT22;64453;51.944;9.796;2022-12-17T03:31:15;-3.00;46.70
75819;DHT22;64453;51.944;9.796;2022-12-17T03:34:02;-2.90;45.80
75819;DHT22;64453;51.944;9.796;2022-12-17T03:36:46;-3.20;45.70
75819;DHT22;64453;51.944;9.796;2022-12-17T03:39:42;-4.10;47.40
75819;DHT22;64453;51.944;9.796;2022-12-17T03:42:26;-5.30;50.50
75819;DHT22;64453;51.944;9.796;2022-12-17T03:45:16;-5.70;52.00
75819;DHT22;64453;51.944;9.796;2022-12-17T03:48:05;-5.70;52.70
75819;DHT22;64453;51.944;9.796;2022-12-17T03:50:53;-4.50;50.30
75819;DHT22;64453;51.944;9.796;2022-12-17T03:53:38;-4.00;48.40
75819;DHT22;64453;51.944;9.796;2022-12-17T03:56:19;-4.50;48.50
75819;DHT22;64453;51.944;9.796;2022-12-17T03:59:04;-5.30;51.00
75819;DHT22;64453;51.944;9.796;2022-12-17T04:01:48;-5.60;52.90
75819;DHT22;64453;51.944;9.796;2022-12-17T04:04:33;-4.60;50.40
75819;DHT22;64453;51.944;9.796;2022-12-17T04:07:19;-4.00;48.30
75819;DHT22;64453;51.944;9.796;2022-12-17T04:10:04;-3.50;47.30
75819;DHT22;64453;51.944;9.796;2022-12-17T04:12:49;-4.40;47.90
75819;DHT22;64453;51.944;9.796;2022-12-17T04:15:33;-4.50;48.80
75819;DHT22;64453;51.944;9.796;2022-12-17T04:18:18;-4.60;48.90
75819;DHT22;64453;51.944;9.796;2022-12-17T04:21:03;-4.80;49.80
75819;DHT22;64453;51.944;9.796;2022-12-17T04:23:49;-5.50;51.10
75819;DHT22;64453;51.944;9.796;2022-12-17T04:26:33;-5.60;51.50
75819;DHT22;64453;51.944;9.796;2022-12-17T04:29:18;-5.30;50.70
75819;DHT22;64453;51.944;9.796;2022-12-17T04:32:14;-5.00;50.30
75819;DHT22;64453;51.944;9.796;2022-12-17T04:34:59;-4.50;48.80
75819;DHT22;64453;51.944;9.796;2022-12-17T04:37:43;-4.20;47.80
75819;DHT22;64453;51.944;9.796;2022-12-17T04:40:28;-4.20;47.80
75819;DHT22;64453;51.944;9.796;2022-12-17T04:43:13;-3.90;46.70
75819;DHT22;64453;51.944;9.796;2022-12-17T04:45:57;-3.90;46.90
75819;DHT22;64453;51.944;9.796;2022-12-17T04:48:42;-3.70;46.40
75819;DHT22;64453;51.944;9.796;2022-12-17T04:51:26;-4.20;46.40
75819;DHT22;64453;51.944;9.796;2022-12-17T04:54:11;-4.30;47.20
75819;DHT22;64453;51.944;9.796;2022-12-17T04:56:57;-4.00;46.80
75819;DHT22;64453;51.944;9.796;2022-12-17T04:59:42;-4.90;48.00
75819;DHT22;64453;51.944;9.796;2022-12-17T05:02:26;-5.50;49.60
75819;DHT22;64453;51.944;9.796;2022-12-17T05:05:11;-5.30;50.20
75819;DHT22;64453;51.944;9.796;2022-12-17T05:07:56;-4.70;48.60
75819;DHT22;64453;51.944;9.796;2022-12-17T05:10:41;-4.40;47.20
75819;DHT22;64453;51.944;9.796;2022-12-17T05:13:27;-4.90;47.50
75819;DHT22;64453;51.944;9.796;2022-12-17T05:16:12;-4.70;47.80
75819;DHT22;64453;51.944;9.796;2022-12-17T05:18:57;-4.60;47.30
75819;DHT22;64453;51.944;9.796;2022-12-17T05:21:43;-4.30;47.10
75819;DHT22;64453;51.944;9.796;2022-12-17T05:24:38;-4.60;47.40
75819;DHT22;64453;51.944;9.796;2022-12-17T05:27:23;-4.20;46.90
75819;DHT22;64453;51.944;9.796;2022-12-17T05:30:09;-3.90;46.00
75819;DHT22;64453;51.944;9.796;2022-12-17T05:32:58;-3.70;45.20
75819;DHT22;64453;51.944;9.796;2022-12-17T05:35:43;-3.90;45.40
75819;DHT22;64453;51.944;9.796;2022-12-17T05:38:37;-3.80;45.30
75819;DHT22;64453;51.944;9.796;2022-12-17T05:41:21;-3.80;45.10
75819;DHT22;64453;51.944;9.796;2022-12-17T05:44:05;-4.30;45.70
75819;DHT22;64453;51.944;9.796;2022-12-17T05:46:51;-4.00;46.10
75819;DHT22;64453;51.944;9.796;2022-12-17T05:49:35;-4.30;46.60
75819;DHT22;64453;51.944;9.796;2022-12-17T05:52:20;-3.90;47.30
75819;DHT22;64453;51.944;9.796;2022-12-17T05:55:05;-3.60;46.50
75819;DHT22;64453;51.944;9.796;2022-12-17T05:57:49;-3.50;45.70
75819;DHT22;64453;51.944;9.796;2022-12-17T06:00:34;-3.50;44.60
75819;DHT22;64453;51.944;9.796;2022-12-17T06:03:20;-3.50;45.50
75819;DHT22;64453;51.944;9.796;2022-12-17T06:06:04;-3.60;44.40
75819;DHT22;64453;51.944;9.796;2022-12-17T06:08:49;-3.60;44.70
75819;DHT22;64453;51.944;9.796;2022-12-17T06:11:33;-3.60;44.50
75819;DHT22;64453;51.944;9.796;2022-12-17T06:14:18;-3.70;44.70
75819;DHT22;64453;51.944;9.796;2022-12-17T06:17:02;-3.60;44.40
75819;DHT22;64453;51.944;9.796;2022-12-17T06:19:48;-3.70;45.00
75819;DHT22;64453;51.944;9.796;2022-12-17T06:22:32;-3.70;45.20
75819;DHT22;64453;51.944;9.796;2022-12-17T06:25:17;-3.70;44.80
75819;DHT22;64453;51.944;9.796;2022-12-17T06:28:02;-3.70;45.80
75819;DHT22;64453;51.944;9.796;2022-12-17T06:30:49;-3.70;45.00
75819;DHT22;64453;51.944;9.796;2022-12-17T06:33:34;-3.80;44.80
75819;DHT22;64453;51.944;9.796;2022-12-17T06:36:20;-4.40;45.80
75819;DHT22;64453;51.944;9.796;2022-12-17T06:39:05;-4.70;46.30
75819;DHT22;64453;51.944;9.796;2022-12-17T06:41:49;-4.40;46.00
75819;DHT22;64453;51.944;9.796;2022-12-17T06:44:34;-4.00;45.50
75819;DHT22;64453;51.944;9.796;2022-12-17T06:47:18;-3.80;45.90
75819;DHT22;64453;51.944;9.796;2022-12-17T06:50:04;-3.60;45.40
75819;DHT22;64453;51.944;9.796;2022-12-17T06:53:03;-3.60;44.80
75819;DHT22;64453;51.944;9.796;2022-12-17T06:55:49;-3.60;44.60
75819;DHT22;64453;51.944;9.796;2022-12-17T06:58:34;-3.70;44.40
75819;DHT22;64453;51.944;9.796;2022-12-17T07:01:18;-3.70;45.30
75819;DHT22;64453;51.944;9.796;2022-12-17T07:04:05;-3.70;45.50
75819;DHT22;64453;51.944;9.796;2022-12-17T07:06:50;-3.60;45.50
75819;DHT22;64453;51.944;9.796;2022-12-17T07:09:35;-3.60;45.20
75819;DHT22;64453;51.944;9.796;2022-12-17T07:12:20;-3.70;44.40
75819;DHT22;64453;51.944;9.796;2022-12-17T07:15:05;-3.70;44.40
75819;DHT22;64453;51.944;9.796;2022-12-17T07:17:54;-3.70;44.70
75819;DHT22;64453;51.944;9.796;2022-12-17T07:20:39;-3.70;44.70
75819;DHT22;64453;51.944;9.796;2022-12-17T07:23:23;-3.90;45.00
75819;DHT22;64453;51.944;9.796;2022-12-17T07:26:09;-3.80;44.50
75819;DHT22;64453;51.944;9.796;2022-12-17T07:28:53;-3.80;44.00
75819;DHT22;64453;51.944;9.796;2022-12-17T07:31:38;-3.80;44.50
75819;DHT22;64453;51.944;9.796;2022-12-17T07:34:23;-3.70;44.30
75819;DHT22;64453;51.944;9.796;2022-12-17T07:37:07;-3.70;44.30
75819;DHT22;64453;51.944;9.796;2022-12-17T07:39:52;-3.70;44.20
75819;DHT22;64453;51.944;9.796;2022-12-17T07:42:39;-3.70;44.10
75819;DHT22;64453;51.944;9.796;2022-12-17T07:45:24;-3.70;44.20
75819;DHT22;64453;51.944;9.796;2022-12-17T07:48:09;-3.70;44.20
75819;DHT22;64453;51.944;9.796;2022-12-17T07:50:54;-3.70;44.30
75819;DHT22;64453;51.944;9.796;2022-12-17T07:53:38;-3.80;44.70
75819;DHT22;64453;51.944;9.796;2022-12-17T07:56:23;-3.70;44.70
75819;DHT22;64453;51.944;9.796;2022-12-17T07:59:09;-3.80;44.80
75819;DHT22;64453;51.944;9.796;2022-12-17T08:01:52;-3.70;44.90
75819;DHT22;64453;51.944;9.796;2022-12-17T08:04:37;-3.60;44.80
75819;DHT22;64453;51.944;9.796;2022-12-17T08:07:21;-3.60;44.80
75819;DHT22;64453;51.944;9.796;2022-12-17T08:10:08;-3.60;45.00
75819;DHT22;64453;51.944;9.796;2022-12-17T08:12:54;-3.50;45.40
75819;DHT22;64453;51.944;9.796;2022-12-17T08:15:41;-3.40;45.40
75819;DHT22;64453;51.944;9.796;2022-12-17T08:18:25;-3.50;45.90
75819;DHT22;64453;51.944;9.796;2022-12-17T08:21:10;-3.40;46.20
75819;DHT22;64453;51.944;9.796;2022-12-17T08:23:57;-3.30;46.30
75819;DHT22;64453;51.944;9.796;2022-12-17T08:26:42;-3.30;47.10
75819;DHT22;64453;51.944;9.796;2022-12-17T08:29:26;-3.20;46.50
75819;DHT22;64453;51.944;9.796;2022-12-17T08:32:12;-3.20;46.50
75819;DHT22;64453;51.944;9.796;2022-12-17T08:35:05;-3.20;46.70
75819;DHT22;64453;51.944;9.796;2022-12-17T08:37:49;-3.10;46.70
75819;DHT22;64453;51.944;9.796;2022-12-17T08:40:34;-3.10;47.10
75819;DHT22;64453;51.944;9.796;2022-12-17T08:43:19;-3.00;47.30
75819;DHT22;64453;51.944;9.796;2022-12-17T08:46:04;-3.00;47.10
75819;DHT22;64453;51.944;9.796;2022-12-17T08:48:50;-2.90;47.30
75819;DHT22;64453;51.944;9.796;2022-12-17T08:51:34;-2.90;47.40
75819;DHT22;64453;51.944;9.796;2022-12-17T08:54:15;-2.80;47.40
75819;DHT22;64453;51.944;9.796;2022-12-17T08:57:00;-2.90;47.80
75819;DHT22;64453;51.944;9.796;2022-12-17T08:59:44;-3.20;48.90
75819;DHT22;64453;51.944;9.796;2022-12-17T09:02:29;-2.90;48.90
75819;DHT22;64453;51.944;9.796;2022-12-17T09:05:14;-2.80;49.20
75819;DHT22;64453;51.944;9.796;2022-12-17T09:08:00;-2.60;49.10
75819;DHT22;64453;51.944;9.796;2022-12-17T09:10:45;-2.50;49.00
75819;DHT22;64453;51.944;9.796;2022-12-17T09:13:29;-2.40;49.00
75819;DHT22;64453;51.944;9.796;2022-12-17T09:16:14;-2.30;49.30
75819;DHT22;64453;51.944;9.796;2022-12-17T09:18:59;-2.30;49.20
75819;DHT22;64453;51.944;9.796;2022-12-17T09:21:45;-2.20;49.60
75819;DHT22;64453;51.944;9.796;2022-12-17T09:24:29;-2.20;49.70
75819;DHT22;64453;51.944;9.796;2022-12-17T09:27:14;-2.10;49.90
75819;DHT22;64453;51.944;9.796;2022-12-17T09:29:59;-2.00;50.00
75819;DHT22;64453;51.944;9.796;2022-12-17T09:32:43;-1.90;50.50
75819;DHT22;64453;51.944;9.796;2022-12-17T09:35:28;-1.80;50.50
75819;DHT22;64453;51.944;9.796;2022-12-17T09:38:14;-1.70;50.70
75819;DHT22;64453;51.944;9.796;2022-12-17T09:41:01;-1.70;50.60
75819;DHT22;64453;51.944;9.796;2022-12-17T09:43:53;-1.60;50.70
75819;DHT22;64453;51.944;9.796;2022-12-17T09:46:47;-1.60;50.70
75819;DHT22;64453;51.944;9.796;2022-12-17T09:49:36;-1.50;50.80
75819;DHT22;64453;51.944;9.796;2022-12-17T09:52:26;-1.50;50.40
75819;DHT22;64453;51.944;9.796;2022-12-17T09:55:20;-1.40;50.50
75819;DHT22;64453;51.944;9.796;2022-12-17T09:58:17;-1.40;50.60
75819;DHT22;64453;51.944;9.796;2022-12-17T10:01:04;-1.40;50.70
75819;DHT22;64453;51.944;9.796;2022-12-17T10:03:49;-1.40;50.80
75819;DHT22;64453;51.944;9.796;2022-12-17T10:06:34;-1.30;51.10
75819;DHT22;64453;51.944;9.796;2022-12-17T10:09:19;-1.20;51.30
75819;DHT22;64453;51.944;9.796;2022-12-17T10:12:12;-1.20;51.30
75819;DHT22;64453;51.944;9.796;2022-12-17T10:14:58;-1.10;51.40
75819;DHT22;64453;51.944;9.796;2022-12-17T10:17:42;-1.10;51.40
75819;DHT22;64453;51.944;9.796;2022-12-17T10:20:31;-1.00;51.30
75819;DHT22;64453;51.944;9.796;2022-12-17T10:23:23;-0.90;51.30
75819;DHT22;64453;51.944;9.796;2022-12-17T10:26:12;-0.80;51.50
75819;DHT22;64453;51.944;9.796;2022-12-17T10:29:03;-0.90;51.50
75819;DHT22;64453;51.944;9.796;2022-12-17T10:31:48;-0.80;51.50
75819;DHT22;64453;51.944;9.796;2022-12-17T10:34:35;-0.80;51.50
75819;DHT22;64453;51.944;9.796;2022-12-17T10:37:21;-0.80;51.60
75819;DHT22;64453;51.944;9.796;2022-12-17T10:40:24;-0.70;51.60
75819;DHT22;64453;51.944;9.796;2022-12-17T10:43:23;-0.60;51.90
75819;DHT22;64453;51.944;9.796;2022-12-17T10:46:10;-0.50;52.00
75819;DHT22;64453;51.944;9.796;2022-12-17T10:49:08;-0.50;52.10
75819;DHT22;64453;51.944;9.796;2022-12-17T10:52:01;-0.50;51.90
75819;DHT22;64453;51.944;9.796;2022-12-17T10:54:55;-0.40;51.80
75819;DHT22;64453;51.944;9.796;2022-12-17T10:57:42;-0.40;51.80
75819;DHT22;64453;51.944;9.796;2022-12-17T11:00:30;-0.40;51.80
75819;DHT22;64453;51.944;9.796;2022-12-17T11:03:38;-0.30;52.00
75819;DHT22;64453;51.944;9.796;2022-12-17T11:06:33;-0.20;52.00
75819;DHT22;64453;51.944;9.796;2022-12-17T11:09:31;-0.20;52.10
75819;DHT22;64453;51.944;9.796;2022-12-17T11:12:23;-0.20;51.80
75819;DHT22;64453;51.944;9.796;2022-12-17T11:15:17;-0.20;51.70
75819;DHT22;64453;51.944;9.796;2022-12-17T11:18:05;-0.10;51.60
75819;DHT22;64453;51.944;9.796;2022-12-17T11:21:01;-0.10;51.50
75819;DHT22;64453;51.944;9.796;2022-12-17T11:23:49;-0.20;51.50
75819;DHT22;64453;51.944;9.796;2022-12-17T11:26:36;-0.10;52.30
75819;DHT22;64453;51.944;9.796;2022-12-17T11:29:22;0.00;51.40
75819;DHT22;64453;51.944;9.796;2022-12-17T11:32:40;0.10;51.50
75819;DHT22;64453;51.944;9.796;2022-12-17T11:35:35;0.10;51.30
75819;DHT22;64453;51.944;9.796;2022-12-17T11:38:33;0.20;51.40
75819;DHT22;64453;51.944;9.796;2022-12-17T11:41:29;0.20;51.60
75819;DHT22;64453;51.944;9.796;2022-12-17T11:44:38;0.10;52.10
75819;DHT22;64453;51.944;9.796;2022-12-17T11:47:34;0.20;51.90
75819;DHT22;64453;51.944;9.796;2022-12-17T11:50:26;0.30;51.70
75819;DHT22;64453;51.944;9.796;2022-12-17T11:53:35;0.30;51.70
75819;DHT22;64453;51.944;9.796;2022-12-17T11:56:29;0.30;51.70
75819;DHT22;64453;51.944;9.796;2022-12-17T11:59:25;0.30;52.00
75819;DHT22;64453;51.944;9.796;2022-12-17T12:02:21;0.40;52.00
75819;DHT22;64453;51.944;9.796;2022-12-17T12:05:21;0.40;52.00
75819;DHT22;64453;51.944;9.796;2022-12-17T12:08:15;0.50;52.10
75819;DHT22;64453;51.944;9.796;2022-12-17T12:11:10;0.50;52.30
75819;DHT22;64453;51.944;9.796;2022-12-17T12:14:01;0.60;52.00
75819;DHT22;64453;51.944;9.796;2022-12-17T12:17:12;0.60;52.10
75819;DHT22;64453;51.944;9.796;2022-12-17T12:20:12;0.70;52.00
75819;DHT22;64453;51.944;9.796;2022-12-17T12:23:13;0.80;51.90
75819;DHT22;64453;51.944;9.796;2022-12-17T12:26:09;0.70;52.00
75819;DHT22;64453;51.944;9.796;2022-12-17T12:29:00;0.80;52.10
75819;DHT22;64453;51.944;9.796;2022-12-17T12:31:56;0.80;52.00
75819;DHT22;64453;51.944;9.796;2022-12-17T12:34:45;0.90;52.10
75819;DHT22;64453;51.944;9.796;2022-12-17T12:37:31;0.90;51.90
75819;DHT22;64453;51.944;9.796;2022-12-17T12:40:22;0.90;51.90
75819;DHT22;64453;51.944;9.796;2022-12-17T12:43:28;1.00;51.90
75819;DHT22;64453;51.944;9.796;2022-12-17T12:46:16;1.10;52.00
75819;DHT22;64453;51.944;9.796;2022-12-17T12:49:07;1.20;52.10
75819;DHT22;64453;51.944;9.796;2022-12-17T12:51:58;1.20;51.90
75819;DHT22;64453;51.944;9.796;2022-12-17T12:54:51;1.20;51.80
75819;DHT22;64453;51.944;9.796;2022-12-17T12:57:39;1.30;51.80
75819;DHT22;64453;51.944;9.796;2022-12-17T13:00:33;1.20;51.90
75819;DHT22;64453;51.944;9.796;2022-12-17T13:03:36;1.30;51.60
75819;DHT22;64453;51.944;9.796;2022-12-17T13:06:43;1.30;51.60
75819;DHT22;64453;51.944;9.796;2022-12-17T13:09:31;1.40;51.50
75819;DHT22;64453;51.944;9.796;2022-12-17T13:12:26;1.80;51.20
75819;DHT22;64453;51.944;9.796;2022-12-17T13:15:14;1.60;50.80
75819;DHT22;64453;51.944;9.796;2022-12-17T13:17:55;1.60;50.90
75819;DHT22;64453;51.944;9.796;2022-12-17T13:20:27;1.50;51.00
75819;DHT22;64453;51.944;9.796;2022-12-17T13:23:15;1.40;51.10
75819;DHT22;64453;51.944;9.796;2022-12-17T13:26:16;1.50;51.00
75819;DHT22;64453;51.944;9.796;2022-12-17T13:28:57;1.50;50.90
75819;DHT22;64453;51.944;9.796;2022-12-17T13:31:27;1.50;50.90
75819;DHT22;64453;51.944;9.796;2022-12-17T13:34:04;1.50;50.70
75819;DHT22;64453;51.944;9.796;2022-12-17T13:36:41;1.50;50.70
75819;DHT22;64453;51.944;9.796;2022-12-17T13:39:24;1.50;50.70
75819;DHT22;64453;51.944;9.796;2022-12-17T13:41:56;1.50;50.70
75819;DHT22;64453;51.944;9.796;2022-12-17T13:44:25;1.50;50.70
75819;DHT22;64453;51.944;9.796;2022-12-17T13:46:56;1.50;50.70
75819;DHT22;64453;51.944;9.796;2022-12-17T13:49:26;1.50;50.70
75819;DHT22;64453;51.944;9.796;2022-12-17T13:52:01;1.50;50.60
75819;DHT22;64453;51.944;9.796;2022-12-17T13:54:29;1.50;50.60
75819;DHT22;64453;51.944;9.796;2022-12-17T13:57:06;1.50;50.70
75819;DHT22;64453;51.944;9.796;2022-12-17T13:59:34;1.50;50.60
75819;DHT22;64453;51.944;9.796;2022-12-17T14:02:01;1.40;50.40
75819;DHT22;64453;51.944;9.796;2022-12-17T14:04:29;1.40;50.60
75819;DHT22;64453;51.944;9.796;2022-12-17T14:06:58;1.40;50.60
75819;DHT22;64453;51.944;9.796;2022-12-17T14:09:31;1.40;50.70
75819;DHT22;64453;51.944;9.796;2022-12-17T14:12:02;1.40;50.60
75819;DHT22;64453;51.944;9.796;2022-12-17T14:14:49;1.40;50.50
75819;DHT22;64453;51.944;9.796;2022-12-17T14:17:21;1.40;50.70
75819;DHT22;64453;51.944;9.796;2022-12-17T14:19:55;1.30;50.80
75819;DHT22;64453;51.944;9.796;2022-12-17T14:22:29;1.20;50.70
75819;DHT22;64453;51.944;9.796;2022-12-17T14:24:59;1.20;50.90
75819;DHT22;64453;51.944;9.796;2022-12-17T14:27:31;1.20;50.70
75819;DHT22;64453;51.944;9.796;2022-12-17T14:29:59;1.30;50.70
75819;DHT22;64453;51.944;9.796;2022-12-17T14:32:31;1.30;50.60
75819;DHT22;64453;51.944;9.796;2022-12-17T14:35:02;1.20;50.60
75819;DHT22;64453;51.944;9.796;2022-12-17T14:37:30;1.20;50.60
75819;DHT22;64453;51.944;9.796;2022-12-17T14:40:00;1.30;50.60
75819;DHT22;64453;51.944;9.796;2022-12-17T14:42:29;1.20;50.40
75819;DHT22;64453;51.944;9.796;2022-12-17T14:44:59;1.20;50.50
75819;DHT22;64453;51.944;9.796;2022-12-17T14:47:28;1.20;50.60
75819;DHT22;64453;51.944;9.796;2022-12-17T14:50:01;1.10;50.50
75819;DHT22;64453;51.944;9.796;2022-12-17T14:52:35;1.10;50.60
75819;DHT22;64453;51.944;9.796;2022-12-17T14:55:31;1.00;50.80
75819;DHT22;64453;51.944;9.796;2022-12-17T14:58:13;1.00;50.80
75819;DHT22;64453;51.944;9.796;2022-12-17T15:00:44;0.90;50.90
75819;DHT22;64453;51.944;9.796;2022-12-17T15:03:19;0.80;51.00
75819;DHT22;64453;51.944;9.796;2022-12-17T15:05:51;0.80;50.90
75819;DHT22;64453;51.944;9.796;2022-12-17T15:08:20;0.80;51.00
75819;DHT22;64453;51.944;9.796;2022-12-17T15:10:48;0.80;51.00
75819;DHT22;64453;51.944;9.796;2022-12-17T15:13:15;0.70;50.80
75819;DHT22;64453;51.944;9.796;2022-12-17T15:15:42;0.70;50.70
75819;DHT22;64453;51.944;9.796;2022-12-17T15:18:10;0.60;50.60
75819;DHT22;64453;51.944;9.796;2022-12-17T15:20:37;0.50;50.50
75819;DHT22;64453;51.944;9.796;2022-12-17T15:23:10;0.30;50.60
75819;DHT22;64453;51.944;9.796;2022-12-17T15:25:40;0.00;50.60
75819;DHT22;64453;51.944;9.796;2022-12-17T15:28:08;-0.80;52.10
75819;DHT22;64453;51.944;9.796;2022-12-17T15:30:35;-0.70;52.10
75819;DHT22;64453;51.944;9.796;2022-12-17T15:33:04;-0.80;51.50
75819;DHT22;64453;51.944;9.796;2022-12-17T15:35:32;-1.10;52.00
75819;DHT22;64453;51.944;9.796;2022-12-17T15:37:59;-1.00;51.80
75819;DHT22;64453;51.944;9.796;2022-12-17T15:40:27;-1.10;51.60
75819;DHT22;64453;51.944;9.796;2022-12-17T15:42:54;-1.00;51.30
75819;DHT22;64453;51.944;9.796;2022-12-17T15:45:35;-1.30;51.60
75819;DHT22;64453;51.944;9.796;2022-12-17T15:48:03;-1.20;51.20
75819;DHT22;64453;51.944;9.796;2022-12-17T15:50:30;-1.20;51.10
75819;DHT22;64453;51.944;9.796;2022-12-17T15:52:57;-1.30;51.30
75819;DHT22;64453;51.944;9.796;2022-12-17T15:55:24;-1.10;50.90
75819;DHT22;64453;51.944;9.796;2022-12-17T15:57:53;-1.20;50.40
75819;DHT22;64453;51.944;9.796;2022-12-17T16:00:20;-1.20;50.60
75819;DHT22;64453;51.944;9.796;2022-12-17T16:02:49;-1.20;50.70
75819;DHT22;64453;51.944;9.796;2022-12-17T16:05:16;-1.50;50.90
75819;DHT22;64453;51.944;9.796;2022-12-17T16:07:43;-1.70;50.50
75819;DHT22;64453;51.944;9.796;2022-12-17T16:10:11;-1.80;50.60
75819;DHT22;64453;51.944;9.796;2022-12-17T16:12:40;-2.00;50.70
75819;DHT22;64453;51.944;9.796;2022-12-17T16:15:08;-2.00;50.50
75819;DHT22;64453;51.944;9.796;2022-12-17T16:17:36;-2.30;50.70
75819;DHT22;64453;51.944;9.796;2022-12-17T16:20:04;-2.30;50.00
75819;DHT22;64453;51.944;9.796;2022-12-17T16:22:32;-2.20;50.10
75819;DHT22;64453;51.944;9.796;2022-12-17T16:24:59;-2.20;50.00
75819;DHT22;64453;51.944;9.796;2022-12-17T16:27:26;-2.30;49.70
75819;DHT22;64453;51.944;9.796;2022-12-17T16:29:55;-2.40;50.20
75819;DHT22;64453;51.944;9.796;2022-12-17T16:32:21;-2.40;49.90
75819;DHT22;64453;51.944;9.796;2022-12-17T16:34:48;-2.70;50.30
75819;DHT22;64453;51.944;9.796;2022-12-17T16:37:16;-2.90;51.10
75819;DHT22;64453;51.944;9.796;2022-12-17T16:39:43;-3.10;50.90
75819;DHT22;64453;51.944;9.796;2022-12-17T16:42:10;-2.90;50.50
75819;DHT22;64453;51.944;9.796;2022-12-17T16:44:37;-2.90;50.20
75819;DHT22;64453;51.944;9.796;2022-12-17T16:47:05;-3.10;50.50
75819;DHT22;64453;51.944;9.796;2022-12-17T16:49:32;-3.50;51.10
75819;DHT22;64453;51.944;9.796;2022-12-17T16:51:59;-3.50;51.30
75819;DHT22;64453;51.944;9.796;2022-12-17T16:54:30;-3.60;52.00
75819;DHT22;64453;51.944;9.796;2022-12-17T16:56:58;-3.10;51.10
75819;DHT22;64453;51.944;9.796;2022-12-17T16:59:26;-2.80;50.00
75819;DHT22;64453;51.944;9.796;2022-12-17T17:01:53;-3.30;49.90
75819;DHT22;64453;51.944;9.796;2022-12-17T17:04:23;-3.40;51.60
75819;DHT22;64453;51.944;9.796;2022-12-17T17:06:51;-3.30;51.00
75819;DHT22;64453;51.944;9.796;2022-12-17T17:09:21;-3.00;50.00
75819;DHT22;64453;51.944;9.796;2022-12-17T17:11:51;-2.80;49.60
75819;DHT22;64453;51.944;9.796;2022-12-17T17:14:20;-2.60;48.90
75819;DHT22;64453;51.944;9.796;2022-12-17T17:16:47;-2.30;49.50
75819;DHT22;64453;51.944;9.796;2022-12-17T17:19:14;-2.20;49.70